Terminal Aerodrome Forecast
Issued by NWS Twin Cities, MN

Home | Current Version | Previous Version | Text Only | Print | Product List | Glossary Off
Versions: 1 2 3 4 5 6 7 8 9 10 11 12 13 14 15 16 17 18 19 20 21 22 23 24 25

000
FTUS43 KMPX 080800 AAA
TAFMSP
TAF AMD
KMSP 080848Z 0809/0912 28009KT P6SM FEW100 SCT300
     FM081400 30012G19KT P6SM FEW150
     FM081600 31015G25KT P6SM SCT050
     FM081800 31017G26KT P6SM BKN050
     FM090100 31007KT P6SM SKC=

USA.gov is the U.S. government's official web portal to all federal, state and local government web resources and services.